North Wantagh, New York
Current Conditions -  °F | °C
As of 2:53 AM on Monday 24 Nov 2014 (Local Time) from KFRG Reporting Station
Overcast Overcast  
Wind Chill: 59°   Ceiling: 2500
Heat Index: 59°   Visibility: 10mi
Dew Point: 55°   Wind: 16mph
Humidity: 87%   Direction: 140°SE
Pressure: 29.87"   Gusts: 25mph
Location:  40.681°N, 73.5104°W
Report Text: KFRG 240753Z AUTO 14014G22KT 10SM FEW020 BKN025 OVC038 15/13 A2987 RMK AO2 RAE52 PRESFR SLP116 P0001 T01500128
Loading
Personal Weather Stations






























Interactive Weather Map New forecast layout! Learn more

10-Day Weather Forecast

Advertisements
Track Severe Weather on mobile